sensor_id;sensor_type;location;lat;lon;timestamp;P1;durP1;ratioP1;P2;durP2;ratioP2
61383;SDS011;63511;49.346;8.798;2022-11-15T00:00:52;10.63;;;5.53;;
61383;SDS011;63511;49.346;8.798;2022-11-15T00:03:20;8.15;;;5.40;;
61383;SDS011;63511;49.346;8.798;2022-11-15T00:05:49;13.55;;;5.72;;
61383;SDS011;63511;49.346;8.798;2022-11-15T00:08:17;7.05;;;5.18;;
61383;SDS011;63511;49.346;8.798;2022-11-15T00:10:43;25.75;;;8.55;;
61383;SDS011;63511;49.346;8.798;2022-11-15T00:13:19;9.00;;;5.65;;
61383;SDS011;63511;49.346;8.798;2022-11-15T00:15:49;11.80;;;5.90;;
61383;SDS011;63511;49.346;8.798;2022-11-15T00:18:14;10.50;;;5.28;;
61383;SDS011;63511;49.346;8.798;2022-11-15T00:20:45;11.13;;;5.15;;
61383;SDS011;63511;49.346;8.798;2022-11-15T00:23:10;9.57;;;5.50;;
61383;SDS011;63511;49.346;8.798;2022-11-15T00:25:36;7.53;;;5.03;;
61383;SDS011;63511;49.346;8.798;2022-11-15T00:28:01;7.85;;;5.15;;
61383;SDS011;63511;49.346;8.798;2022-11-15T00:30:29;8.73;;;5.55;;
61383;SDS011;63511;49.346;8.798;2022-11-15T00:32:55;9.77;;;4.82;;
61383;SDS011;63511;49.346;8.798;2022-11-15T00:35:20;7.07;;;4.85;;
61383;SDS011;63511;49.346;8.798;2022-11-15T00:37:46;9.30;;;4.65;;
61383;SDS011;63511;49.346;8.798;2022-11-15T00:40:13;12.85;;;5.32;;
61383;SDS011;63511;49.346;8.798;2022-11-15T00:42:39;6.80;;;4.53;;
61383;SDS011;63511;49.346;8.798;2022-11-15T00:45:04;9.20;;;4.63;;
61383;SDS011;63511;49.346;8.798;2022-11-15T00:47:30;11.20;;;5.53;;
61383;SDS011;63511;49.346;8.798;2022-11-15T00:49:58;11.77;;;5.85;;
61383;SDS011;63511;49.346;8.798;2022-11-15T00:52:23;10.15;;;7.13;;
61383;SDS011;63511;49.346;8.798;2022-11-15T00:54:48;11.55;;;6.05;;
61383;SDS011;63511;49.346;8.798;2022-11-15T00:57:14;12.60;;;6.07;;
61383;SDS011;63511;49.346;8.798;2022-11-15T00:59:39;8.20;;;5.28;;
61383;SDS011;63511;49.346;8.798;2022-11-15T01:02:06;9.02;;;6.28;;
61383;SDS011;63511;49.346;8.798;2022-11-15T01:04:32;8.30;;;5.80;;
61383;SDS011;63511;49.346;8.798;2022-11-15T01:06:57;7.75;;;5.57;;
61383;SDS011;63511;49.346;8.798;2022-11-15T01:09:22;14.60;;;6.72;;
61383;SDS011;63511;49.346;8.798;2022-11-15T01:11:48;6.95;;;5.28;;
61383;SDS011;63511;49.346;8.798;2022-11-15T01:14:13;11.38;;;5.78;;
61383;SDS011;63511;49.346;8.798;2022-11-15T01:16:41;11.82;;;5.97;;
61383;SDS011;63511;49.346;8.798;2022-11-15T01:19:11;7.95;;;5.60;;
61383;SDS011;63511;49.346;8.798;2022-11-15T01:21:38;7.90;;;6.32;;
61383;SDS011;63511;49.346;8.798;2022-11-15T01:24:07;8.10;;;6.00;;
61383;SDS011;63511;49.346;8.798;2022-11-15T01:26:32;8.65;;;5.45;;
61383;SDS011;63511;49.346;8.798;2022-11-15T01:28:58;9.88;;;5.45;;
61383;SDS011;63511;49.346;8.798;2022-11-15T01:31:23;14.32;;;5.65;;
61383;SDS011;63511;49.346;8.798;2022-11-15T01:33:48;7.70;;;5.55;;
61383;SDS011;63511;49.346;8.798;2022-11-15T01:36:15;8.50;;;4.95;;
61383;SDS011;63511;49.346;8.798;2022-11-15T01:38:46;8.40;;;5.65;;
61383;SDS011;63511;49.346;8.798;2022-11-15T01:41:16;10.80;;;7.03;;
61383;SDS011;63511;49.346;8.798;2022-11-15T01:48:42;8.00;;;5.20;;
61383;SDS011;63511;49.346;8.798;2022-11-15T01:51:10;12.05;;;5.50;;
61383;SDS011;63511;49.346;8.798;2022-11-15T01:53:39;9.98;;;5.38;;
61383;SDS011;63511;49.346;8.798;2022-11-15T01:56:07;9.68;;;5.65;;
61383;SDS011;63511;49.346;8.798;2022-11-15T01:58:37;14.75;;;5.15;;
61383;SDS011;63511;49.346;8.798;2022-11-15T02:01:04;13.50;;;5.75;;
61383;SDS011;63511;49.346;8.798;2022-11-15T02:06:22;7.47;;;4.05;;
61383;SDS011;63511;49.346;8.798;2022-11-15T02:08:50;11.75;;;5.03;;
61383;SDS011;63511;49.346;8.798;2022-11-15T02:11:16;10.30;;;5.35;;
61383;SDS011;63511;49.346;8.798;2022-11-15T02:13:42;6.75;;;5.00;;
61383;SDS011;63511;49.346;8.798;2022-11-15T02:18:50;7.70;;;4.85;;
61383;SDS011;63511;49.346;8.798;2022-11-15T02:21:36;8.05;;;4.78;;
61383;SDS011;63511;49.346;8.798;2022-11-15T02:35:21;9.10;;;5.30;;
61383;SDS011;63511;49.346;8.798;2022-11-15T02:38:07;7.85;;;5.10;;
61383;SDS011;63511;49.346;8.798;2022-11-15T02:43:10;7.20;;;4.57;;
61383;SDS011;63511;49.346;8.798;2022-11-15T02:46:06;7.90;;;5.63;;
61383;SDS011;63511;49.346;8.798;2022-11-15T02:51:07;7.32;;;4.05;;
61383;SDS011;63511;49.346;8.798;2022-11-15T02:53:33;7.78;;;5.22;;
61383;SDS011;63511;49.346;8.798;2022-11-15T02:55:58;7.78;;;5.15;;
61383;SDS011;63511;49.346;8.798;2022-11-15T03:06:42;5.45;;;4.10;;
61383;SDS011;63511;49.346;8.798;2022-11-15T03:12:23;5.95;;;4.60;;
61383;SDS011;63511;49.346;8.798;2022-11-15T03:15:00;9.40;;;5.53;;
61383;SDS011;63511;49.346;8.798;2022-11-15T03:17:30;8.63;;;4.72;;
61383;SDS011;63511;49.346;8.798;2022-11-15T03:20:01;7.55;;;5.38;;
61383;SDS011;63511;49.346;8.798;2022-11-15T03:22:30;11.85;;;4.43;;
61383;SDS011;63511;49.346;8.798;2022-11-15T03:27:31;10.60;;;5.15;;
61383;SDS011;63511;49.346;8.798;2022-11-15T03:30:03;14.13;;;4.65;;
61383;SDS011;63511;49.346;8.798;2022-11-15T03:32:34;8.85;;;5.30;;
61383;SDS011;63511;49.346;8.798;2022-11-15T03:35:22;11.50;;;5.70;;
61383;SDS011;63511;49.346;8.798;2022-11-15T03:40:34;13.15;;;6.03;;
61383;SDS011;63511;49.346;8.798;2022-11-15T03:43:06;17.17;;;6.43;;
61383;SDS011;63511;49.346;8.798;2022-11-15T03:45:40;10.02;;;6.13;;
61383;SDS011;63511;49.346;8.798;2022-11-15T03:48:13;10.75;;;6.18;;
61383;SDS011;63511;49.346;8.798;2022-11-15T03:53:10;15.25;;;6.68;;
61383;SDS011;63511;49.346;8.798;2022-11-15T03:55:36;16.23;;;6.85;;
61383;SDS011;63511;49.346;8.798;2022-11-15T03:58:04;10.55;;;6.53;;
61383;SDS011;63511;49.346;8.798;2022-11-15T04:00:29;11.88;;;6.30;;
61383;SDS011;63511;49.346;8.798;2022-11-15T04:02:55;10.68;;;6.55;;
61383;SDS011;63511;49.346;8.798;2022-11-15T04:05:20;11.60;;;6.55;;
61383;SDS011;63511;49.346;8.798;2022-11-15T04:07:46;9.88;;;6.28;;
61383;SDS011;63511;49.346;8.798;2022-11-15T04:10:11;12.48;;;6.18;;
61383;SDS011;63511;49.346;8.798;2022-11-15T04:12:41;10.73;;;6.10;;
61383;SDS011;63511;49.346;8.798;2022-11-15T04:15:09;10.80;;;6.50;;
61383;SDS011;63511;49.346;8.798;2022-11-15T04:20:05;10.07;;;6.15;;
61383;SDS011;63511;49.346;8.798;2022-11-15T04:22:53;11.00;;;6.40;;
61383;SDS011;63511;49.346;8.798;2022-11-15T04:25:41;10.45;;;5.93;;
61383;SDS011;63511;49.346;8.798;2022-11-15T04:28:07;8.50;;;6.47;;
61383;SDS011;63511;49.346;8.798;2022-11-15T04:30:33;9.27;;;6.43;;
61383;SDS011;63511;49.346;8.798;2022-11-15T04:32:58;11.20;;;6.22;;
61383;SDS011;63511;49.346;8.798;2022-11-15T04:35:24;11.50;;;7.25;;
61383;SDS011;63511;49.346;8.798;2022-11-15T04:37:49;8.88;;;6.00;;
61383;SDS011;63511;49.346;8.798;2022-11-15T04:40:15;9.27;;;6.60;;
61383;SDS011;63511;49.346;8.798;2022-11-15T04:42:41;12.50;;;5.95;;
61383;SDS011;63511;49.346;8.798;2022-11-15T04:45:08;8.98;;;6.10;;
61383;SDS011;63511;49.346;8.798;2022-11-15T04:47:34;12.00;;;9.52;;
61383;SDS011;63511;49.346;8.798;2022-11-15T04:50:01;24.33;;;13.77;;
61383;SDS011;63511;49.346;8.798;2022-11-15T04:52:27;15.15;;;11.32;;
61383;SDS011;63511;49.346;8.798;2022-11-15T04:54:52;14.05;;;10.82;;
61383;SDS011;63511;49.346;8.798;2022-11-15T04:57:20;14.02;;;10.10;;
61383;SDS011;63511;49.346;8.798;2022-11-15T04:59:48;11.20;;;9.57;;
61383;SDS011;63511;49.346;8.798;2022-11-15T05:02:15;12.95;;;9.25;;
61383;SDS011;63511;49.346;8.798;2022-11-15T05:04:41;14.32;;;10.13;;
61383;SDS011;63511;49.346;8.798;2022-11-15T05:07:08;14.98;;;9.55;;
61383;SDS011;63511;49.346;8.798;2022-11-15T05:09:33;18.50;;;9.40;;
61383;SDS011;63511;49.346;8.798;2022-11-15T05:12:01;12.90;;;8.48;;
61383;SDS011;63511;49.346;8.798;2022-11-15T05:14:26;11.98;;;7.63;;
61383;SDS011;63511;49.346;8.798;2022-11-15T05:16:52;13.07;;;9.05;;
61383;SDS011;63511;49.346;8.798;2022-11-15T05:19:17;10.65;;;7.93;;
61383;SDS011;63511;49.346;8.798;2022-11-15T05:21:42;12.82;;;7.95;;
61383;SDS011;63511;49.346;8.798;2022-11-15T05:24:09;8.57;;;6.40;;
61383;SDS011;63511;49.346;8.798;2022-11-15T05:26:35;12.80;;;6.95;;
61383;SDS011;63511;49.346;8.798;2022-11-15T05:29:03;13.43;;;7.70;;
61383;SDS011;63511;49.346;8.798;2022-11-15T05:31:30;14.40;;;8.15;;
61383;SDS011;63511;49.346;8.798;2022-11-15T05:33:56;11.02;;;6.80;;
61383;SDS011;63511;49.346;8.798;2022-11-15T05:36:31;10.55;;;7.40;;
61383;SDS011;63511;49.346;8.798;2022-11-15T05:39:00;11.77;;;7.05;;
61383;SDS011;63511;49.346;8.798;2022-11-15T05:41:29;9.77;;;7.55;;
61383;SDS011;63511;49.346;8.798;2022-11-15T05:43:59;11.05;;;7.55;;
61383;SDS011;63511;49.346;8.798;2022-11-15T05:46:27;9.80;;;7.25;;
61383;SDS011;63511;49.346;8.798;2022-11-15T05:48:54;10.52;;;7.32;;
61383;SDS011;63511;49.346;8.798;2022-11-15T05:51:21;10.10;;;7.13;;
61383;SDS011;63511;49.346;8.798;2022-11-15T05:53:47;9.05;;;6.43;;
61383;SDS011;63511;49.346;8.798;2022-11-15T05:56:14;18.55;;;6.50;;
61383;SDS011;63511;49.346;8.798;2022-11-15T05:58:39;8.25;;;6.47;;
61383;SDS011;63511;49.346;8.798;2022-11-15T06:01:05;8.43;;;6.25;;
61383;SDS011;63511;49.346;8.798;2022-11-15T06:03:30;7.10;;;6.15;;
61383;SDS011;63511;49.346;8.798;2022-11-15T06:05:56;8.20;;;5.93;;
61383;SDS011;63511;49.346;8.798;2022-11-15T06:08:24;10.00;;;6.78;;
61383;SDS011;63511;49.346;8.798;2022-11-15T06:10:51;7.57;;;6.15;;
61383;SDS011;63511;49.346;8.798;2022-11-15T06:13:17;7.65;;;6.25;;
61383;SDS011;63511;49.346;8.798;2022-11-15T06:15:42;6.85;;;5.22;;
61383;SDS011;63511;49.346;8.798;2022-11-15T06:18:07;10.13;;;6.15;;
61383;SDS011;63511;49.346;8.798;2022-11-15T06:20:33;8.05;;;5.70;;
61383;SDS011;63511;49.346;8.798;2022-11-15T06:23:02;10.48;;;5.93;;
61383;SDS011;63511;49.346;8.798;2022-11-15T06:25:29;9.50;;;5.93;;
61383;SDS011;63511;49.346;8.798;2022-11-15T06:27:55;8.27;;;6.03;;
61383;SDS011;63511;49.346;8.798;2022-11-15T06:30:25;10.77;;;7.63;;
61383;SDS011;63511;49.346;8.798;2022-11-15T06:32:51;12.00;;;7.10;;
61383;SDS011;63511;49.346;8.798;2022-11-15T06:35:26;13.85;;;8.45;;
61383;SDS011;63511;49.346;8.798;2022-11-15T06:37:51;13.25;;;8.07;;
61383;SDS011;63511;49.346;8.798;2022-11-15T06:40:17;13.75;;;9.30;;
61383;SDS011;63511;49.346;8.798;2022-11-15T06:42:42;16.23;;;9.88;;
61383;SDS011;63511;49.346;8.798;2022-11-15T06:45:10;14.75;;;10.02;;
61383;SDS011;63511;49.346;8.798;2022-11-15T06:47:35;15.52;;;11.70;;
61383;SDS011;63511;49.346;8.798;2022-11-15T06:50:00;13.02;;;8.93;;
61383;SDS011;63511;49.346;8.798;2022-11-15T06:52:26;9.75;;;7.47;;
61383;SDS011;63511;49.346;8.798;2022-11-15T06:54:51;11.77;;;8.82;;
61383;SDS011;63511;49.346;8.798;2022-11-15T06:57:17;15.18;;;8.80;;
61383;SDS011;63511;49.346;8.798;2022-11-15T06:59:42;15.82;;;10.02;;
61383;SDS011;63511;49.346;8.798;2022-11-15T07:02:13;20.65;;;12.90;;
61383;SDS011;63511;49.346;8.798;2022-11-15T07:04:41;21.42;;;14.13;;
61383;SDS011;63511;49.346;8.798;2022-11-15T07:07:06;21.42;;;12.55;;
61383;SDS011;63511;49.346;8.798;2022-11-15T07:09:32;15.80;;;11.35;;
61383;SDS011;63511;49.346;8.798;2022-11-15T07:11:57;15.40;;;10.77;;
61383;SDS011;63511;49.346;8.798;2022-11-15T07:14:23;22.35;;;12.60;;
61383;SDS011;63511;49.346;8.798;2022-11-15T07:16:48;16.98;;;12.25;;
61383;SDS011;63511;49.346;8.798;2022-11-15T07:19:15;15.07;;;10.50;;
61383;SDS011;63511;49.346;8.798;2022-11-15T07:21:40;15.45;;;10.52;;
61383;SDS011;63511;49.346;8.798;2022-11-15T07:24:06;18.33;;;10.95;;
61383;SDS011;63511;49.346;8.798;2022-11-15T07:26:36;19.35;;;12.57;;
61383;SDS011;63511;49.346;8.798;2022-11-15T07:29:01;16.88;;;10.50;;
61383;SDS011;63511;49.346;8.798;2022-11-15T07:31:27;15.93;;;11.07;;
61383;SDS011;63511;49.346;8.798;2022-11-15T07:33:54;13.70;;;9.65;;
61383;SDS011;63511;49.346;8.798;2022-11-15T07:36:22;18.13;;;9.77;;
61383;SDS011;63511;49.346;8.798;2022-11-15T07:38:47;19.60;;;9.43;;
61383;SDS011;63511;49.346;8.798;2022-11-15T07:41:12;16.02;;;9.60;;
61383;SDS011;63511;49.346;8.798;2022-11-15T07:43:38;15.48;;;10.07;;
61383;SDS011;63511;49.346;8.798;2022-11-15T07:46:06;11.82;;;7.85;;
61383;SDS011;63511;49.346;8.798;2022-11-15T07:50:59;11.98;;;7.57;;
61383;SDS011;63511;49.346;8.798;2022-11-15T07:53:24;9.43;;;7.10;;
61383;SDS011;63511;49.346;8.798;2022-11-15T07:55:52;11.00;;;7.93;;
61383;SDS011;63511;49.346;8.798;2022-11-15T07:58:19;13.32;;;7.70;;
61383;SDS011;63511;49.346;8.798;2022-11-15T08:00:46;9.75;;;6.75;;
61383;SDS011;63511;49.346;8.798;2022-11-15T08:03:14;15.52;;;6.93;;
61383;SDS011;63511;49.346;8.798;2022-11-15T08:05:43;10.60;;;6.70;;
61383;SDS011;63511;49.346;8.798;2022-11-15T08:08:14;13.80;;;5.97;;
61383;SDS011;63511;49.346;8.798;2022-11-15T08:10:40;11.70;;;6.57;;
61383;SDS011;63511;49.346;8.798;2022-11-15T08:13:06;13.00;;;6.25;;
61383;SDS011;63511;49.346;8.798;2022-11-15T08:15:35;12.27;;;6.53;;
61383;SDS011;63511;49.346;8.798;2022-11-15T08:18:04;10.32;;;5.05;;
61383;SDS011;63511;49.346;8.798;2022-11-15T08:20:40;13.13;;;5.05;;
61383;SDS011;63511;49.346;8.798;2022-11-15T08:23:06;9.48;;;6.05;;
61383;SDS011;63511;49.346;8.798;2022-11-15T08:25:32;13.27;;;4.90;;
61383;SDS011;63511;49.346;8.798;2022-11-15T08:28:01;8.60;;;5.32;;
61383;SDS011;63511;49.346;8.798;2022-11-15T08:32:58;8.23;;;4.65;;
61383;SDS011;63511;49.346;8.798;2022-11-15T08:35:26;12.68;;;5.70;;
61383;SDS011;63511;49.346;8.798;2022-11-15T08:37:54;9.70;;;5.18;;
61383;SDS011;63511;49.346;8.798;2022-11-15T08:40:22;13.45;;;5.25;;
61383;SDS011;63511;49.346;8.798;2022-11-15T08:42:48;7.70;;;5.60;;
61383;SDS011;63511;49.346;8.798;2022-11-15T08:45:14;8.95;;;5.50;;
61383;SDS011;63511;49.346;8.798;2022-11-15T08:47:42;10.00;;;6.30;;
61383;SDS011;63511;49.346;8.798;2022-11-15T08:50:09;8.70;;;5.93;;
61383;SDS011;63511;49.346;8.798;2022-11-15T08:52:35;11.05;;;6.07;;
61383;SDS011;63511;49.346;8.798;2022-11-15T08:55:00;10.55;;;6.32;;
61383;SDS011;63511;49.346;8.798;2022-11-15T08:57:27;13.10;;;6.50;;
61383;SDS011;63511;49.346;8.798;2022-11-15T08:59:55;9.57;;;6.32;;
61383;SDS011;63511;49.346;8.798;2022-11-15T09:02:20;13.35;;;8.77;;
61383;SDS011;63511;49.346;8.798;2022-11-15T09:04:46;17.90;;;10.30;;
61383;SDS011;63511;49.346;8.798;2022-11-15T09:07:11;28.58;;;14.23;;
61383;SDS011;63511;49.346;8.798;2022-11-15T09:09:38;26.65;;;13.38;;
61383;SDS011;63511;49.346;8.798;2022-11-15T09:12:04;12.07;;;7.53;;
61383;SDS011;63511;49.346;8.798;2022-11-15T09:14:30;13.32;;;7.32;;
61383;SDS011;63511;49.346;8.798;2022-11-15T09:16:56;9.75;;;6.28;;
61383;SDS011;63511;49.346;8.798;2022-11-15T09:19:21;9.57;;;6.95;;
61383;SDS011;63511;49.346;8.798;2022-11-15T09:21:47;7.97;;;5.57;;
61383;SDS011;63511;49.346;8.798;2022-11-15T09:24:12;11.50;;;5.78;;
61383;SDS011;63511;49.346;8.798;2022-11-15T09:26:37;8.77;;;6.03;;
61383;SDS011;63511;49.346;8.798;2022-11-15T09:29:03;8.73;;;5.93;;
61383;SDS011;63511;49.346;8.798;2022-11-15T09:31:31;10.38;;;6.55;;
61383;SDS011;63511;49.346;8.798;2022-11-15T09:33:57;16.33;;;5.95;;
61383;SDS011;63511;49.346;8.798;2022-11-15T09:36:22;9.15;;;6.22;;
61383;SDS011;63511;49.346;8.798;2022-11-15T09:38:50;8.90;;;6.28;;
61383;SDS011;63511;49.346;8.798;2022-11-15T09:41:28;17.42;;;6.53;;
61383;SDS011;63511;49.346;8.798;2022-11-15T09:49:30;12.48;;;6.38;;
61383;SDS011;63511;49.346;8.798;2022-11-15T09:51:56;15.23;;;6.53;;
61383;SDS011;63511;49.346;8.798;2022-11-15T09:54:30;10.80;;;7.05;;
61383;SDS011;63511;49.346;8.798;2022-11-15T09:57:06;10.73;;;6.47;;
61383;SDS011;63511;49.346;8.798;2022-11-15T10:05:18;13.70;;;6.75;;
61383;SDS011;63511;49.346;8.798;2022-11-15T10:11:01;9.98;;;5.10;;
61383;SDS011;63511;49.346;8.798;2022-11-15T10:13:30;6.43;;;4.78;;
61383;SDS011;63511;49.346;8.798;2022-11-15T10:24:26;5.45;;;3.92;;
61383;SDS011;63511;49.346;8.798;2022-11-15T10:26:53;5.80;;;3.88;;
61383;SDS011;63511;49.346;8.798;2022-11-15T10:29:20;12.20;;;5.28;;
61383;SDS011;63511;49.346;8.798;2022-11-15T10:31:47;9.32;;;3.92;;
61383;SDS011;63511;49.346;8.798;2022-11-15T10:34:14;6.70;;;4.03;;
61383;SDS011;63511;49.346;8.798;2022-11-15T10:36:46;6.93;;;3.90;;
61383;SDS011;63511;49.346;8.798;2022-11-15T10:39:21;8.52;;;4.25;;
61383;SDS011;63511;49.346;8.798;2022-11-15T10:44:25;14.52;;;3.95;;
61383;SDS011;63511;49.346;8.798;2022-11-15T10:49:28;8.55;;;4.65;;
61383;SDS011;63511;49.346;8.798;2022-11-15T10:51:56;12.70;;;7.82;;
61383;SDS011;63511;49.346;8.798;2022-11-15T10:54:27;12.30;;;6.47;;
61383;SDS011;63511;49.346;8.798;2022-11-15T10:57:22;6.93;;;4.30;;
61383;SDS011;63511;49.346;8.798;2022-11-15T10:59:54;7.18;;;4.57;;
61383;SDS011;63511;49.346;8.798;2022-11-15T11:02:27;8.73;;;5.18;;
61383;SDS011;63511;49.346;8.798;2022-11-15T11:04:58;8.45;;;4.85;;
61383;SDS011;63511;49.346;8.798;2022-11-15T11:07:25;7.15;;;4.35;;
61383;SDS011;63511;49.346;8.798;2022-11-15T11:10:04;14.70;;;5.65;;
61383;SDS011;63511;49.346;8.798;2022-11-15T11:12:32;10.32;;;5.57;;
61383;SDS011;63511;49.346;8.798;2022-11-15T11:15:05;8.88;;;4.75;;
61383;SDS011;63511;49.346;8.798;2022-11-15T11:36:54;7.03;;;3.88;;
61383;SDS011;63511;49.346;8.798;2022-11-15T11:42:26;9.38;;;5.80;;
61383;SDS011;63511;49.346;8.798;2022-11-15T11:47:51;7.43;;;4.40;;
61383;SDS011;63511;49.346;8.798;2022-11-15T11:50:26;12.30;;;5.28;;
61383;SDS011;63511;49.346;8.798;2022-11-15T11:55:46;11.10;;;4.60;;
61383;SDS011;63511;49.346;8.798;2022-11-15T11:58:21;11.80;;;4.95;;
61383;SDS011;63511;49.346;8.798;2022-11-15T12:01:02;10.50;;;4.72;;
61383;SDS011;63511;49.346;8.798;2022-11-15T12:03:43;6.57;;;3.85;;
61383;SDS011;63511;49.346;8.798;2022-11-15T12:09:02;8.65;;;3.88;;
61383;SDS011;63511;49.346;8.798;2022-11-15T12:14:29;6.70;;;4.63;;
61383;SDS011;63511;49.346;8.798;2022-11-15T12:16:58;11.73;;;4.93;;
61383;SDS011;63511;49.346;8.798;2022-11-15T12:19:26;9.13;;;4.80;;
61383;SDS011;63511;49.346;8.798;2022-11-15T12:22:00;8.63;;;5.43;;
61383;SDS011;63511;49.346;8.798;2022-11-15T12:25:14;12.65;;;5.68;;
61383;SDS011;63511;49.346;8.798;2022-11-15T12:30:08;12.55;;;5.78;;
61383;SDS011;63511;49.346;8.798;2022-11-15T12:32:38;14.52;;;5.78;;
61383;SDS011;63511;49.346;8.798;2022-11-15T12:35:06;8.05;;;4.90;;
61383;SDS011;63511;49.346;8.798;2022-11-15T12:37:48;11.48;;;5.10;;
61383;SDS011;63511;49.346;8.798;2022-11-15T12:42:59;14.55;;;6.63;;
61383;SDS011;63511;49.346;8.798;2022-11-15T12:45:40;12.25;;;6.30;;
61383;SDS011;63511;49.346;8.798;2022-11-15T12:58:56;5.97;;;3.95;;
61383;SDS011;63511;49.346;8.798;2022-11-15T13:06:48;6.32;;;3.63;;
61383;SDS011;63511;49.346;8.798;2022-11-15T13:12:09;12.05;;;7.70;;
61383;SDS011;63511;49.346;8.798;2022-11-15T13:17:34;6.47;;;2.50;;
61383;SDS011;63511;49.346;8.798;2022-11-15T13:22:39;5.55;;;2.88;;
61383;SDS011;63511;49.346;8.798;2022-11-15T13:28:09;9.07;;;3.38;;
61383;SDS011;63511;49.346;8.798;2022-11-15T13:30:48;3.75;;;2.60;;
61383;SDS011;63511;49.346;8.798;2022-11-15T13:33:30;9.47;;;3.17;;
61383;SDS011;63511;49.346;8.798;2022-11-15T13:36:02;5.20;;;2.95;;
61383;SDS011;63511;49.346;8.798;2022-11-15T13:38:32;5.72;;;3.70;;
61383;SDS011;63511;49.346;8.798;2022-11-15T13:41:18;7.60;;;3.88;;
61383;SDS011;63511;49.346;8.798;2022-11-15T13:43:48;11.77;;;5.45;;
61383;SDS011;63511;49.346;8.798;2022-11-15T13:46:19;9.65;;;4.05;;
61383;SDS011;63511;49.346;8.798;2022-11-15T13:48:51;10.82;;;4.10;;
61383;SDS011;63511;49.346;8.798;2022-11-15T13:51:41;6.88;;;3.55;;
61383;SDS011;63511;49.346;8.798;2022-11-15T13:56:42;6.75;;;4.15;;
61383;SDS011;63511;49.346;8.798;2022-11-15T13:59:13;16.40;;;3.67;;
61383;SDS011;63511;49.346;8.798;2022-11-15T14:01:43;5.95;;;3.38;;
61383;SDS011;63511;49.346;8.798;2022-11-15T14:04:09;5.85;;;3.30;;
61383;SDS011;63511;49.346;8.798;2022-11-15T14:06:43;9.50;;;4.45;;
61383;SDS011;63511;49.346;8.798;2022-11-15T14:11:58;6.97;;;3.63;;
61383;SDS011;63511;49.346;8.798;2022-11-15T14:14:25;9.70;;;3.67;;
61383;SDS011;63511;49.346;8.798;2022-11-15T14:16:56;13.45;;;4.03;;
61383;SDS011;63511;49.346;8.798;2022-11-15T14:25:12;7.53;;;3.85;;
61383;SDS011;63511;49.346;8.798;2022-11-15T14:28:07;5.65;;;3.65;;
61383;SDS011;63511;49.346;8.798;2022-11-15T14:30:36;10.85;;;3.85;;
61383;SDS011;63511;49.346;8.798;2022-11-15T14:33:01;6.05;;;3.70;;
61383;SDS011;63511;49.346;8.798;2022-11-15T14:35:31;6.43;;;3.35;;
61383;SDS011;63511;49.346;8.798;2022-11-15T14:37:58;10.73;;;4.20;;
61383;SDS011;63511;49.346;8.798;2022-11-15T14:40:24;9.13;;;4.28;;
61383;SDS011;63511;49.346;8.798;2022-11-15T14:42:49;13.65;;;3.70;;
61383;SDS011;63511;49.346;8.798;2022-11-15T14:45:16;7.72;;;3.33;;
61383;SDS011;63511;49.346;8.798;2022-11-15T14:50:20;10.70;;;3.72;;
61383;SDS011;63511;49.346;8.798;2022-11-15T14:52:47;7.53;;;3.45;;
61383;SDS011;63511;49.346;8.798;2022-11-15T14:55:23;7.57;;;3.30;;
61383;SDS011;63511;49.346;8.798;2022-11-15T14:57:51;11.25;;;3.88;;
61383;SDS011;63511;49.346;8.798;2022-11-15T15:00:20;7.25;;;3.40;;
61383;SDS011;63511;49.346;8.798;2022-11-15T15:02:47;10.93;;;3.45;;
61383;SDS011;63511;49.346;8.798;2022-11-15T15:05:17;10.25;;;3.90;;
61383;SDS011;63511;49.346;8.798;2022-11-15T15:07:44;7.15;;;3.63;;
61383;SDS011;63511;49.346;8.798;2022-11-15T15:10:10;9.65;;;3.80;;
61383;SDS011;63511;49.346;8.798;2022-11-15T15:12:36;10.27;;;4.90;;
61383;SDS011;63511;49.346;8.798;2022-11-15T15:15:03;10.07;;;4.78;;
61383;SDS011;63511;49.346;8.798;2022-11-15T15:17:29;13.57;;;5.50;;
61383;SDS011;63511;49.346;8.798;2022-11-15T15:19:55;8.70;;;4.70;;
61383;SDS011;63511;49.346;8.798;2022-11-15T15:22:21;8.55;;;3.60;;
61383;SDS011;63511;49.346;8.798;2022-11-15T15:24:50;8.10;;;3.58;;
61383;SDS011;63511;49.346;8.798;2022-11-15T15:27:16;14.73;;;4.15;;
61383;SDS011;63511;49.346;8.798;2022-11-15T15:29:41;10.43;;;4.70;;
61383;SDS011;63511;49.346;8.798;2022-11-15T15:32:06;8.93;;;4.10;;
61383;SDS011;63511;49.346;8.798;2022-11-15T15:34:33;7.57;;;4.32;;
61383;SDS011;63511;49.346;8.798;2022-11-15T15:39:32;9.38;;;4.05;;
61383;SDS011;63511;49.346;8.798;2022-11-15T15:41:58;9.15;;;5.28;;
61383;SDS011;63511;49.346;8.798;2022-11-15T15:44:25;12.25;;;5.00;;
61383;SDS011;63511;49.346;8.798;2022-11-15T15:46:53;12.65;;;5.10;;
61383;SDS011;63511;49.346;8.798;2022-11-15T15:49:18;15.30;;;4.80;;
61383;SDS011;63511;49.346;8.798;2022-11-15T15:51:44;8.43;;;4.60;;
61383;SDS011;63511;49.346;8.798;2022-11-15T15:54:09;9.48;;;4.68;;
61383;SDS011;63511;49.346;8.798;2022-11-15T15:56:34;6.45;;;4.55;;
61383;SDS011;63511;49.346;8.798;2022-11-15T15:58:59;8.25;;;4.57;;
61383;SDS011;63511;49.346;8.798;2022-11-15T16:01:27;19.33;;;4.82;;
61383;SDS011;63511;49.346;8.798;2022-11-15T16:03:52;14.30;;;4.20;;
61383;SDS011;63511;49.346;8.798;2022-11-15T16:06:37;11.10;;;4.25;;
61383;SDS011;63511;49.346;8.798;2022-11-15T16:09:04;8.52;;;4.35;;
61383;SDS011;63511;49.346;8.798;2022-11-15T16:11:30;13.02;;;6.05;;
61383;SDS011;63511;49.346;8.798;2022-11-15T16:13:55;16.17;;;5.15;;
61383;SDS011;63511;49.346;8.798;2022-11-15T16:16:24;10.45;;;4.45;;
61383;SDS011;63511;49.346;8.798;2022-11-15T16:18:49;12.07;;;5.30;;
61383;SDS011;63511;49.346;8.798;2022-11-15T16:21:14;9.68;;;4.47;;
61383;SDS011;63511;49.346;8.798;2022-11-15T16:23:42;15.65;;;5.32;;
61383;SDS011;63511;49.346;8.798;2022-11-15T16:26:14;7.18;;;4.10;;
61383;SDS011;63511;49.346;8.798;2022-11-15T16:28:47;11.40;;;4.10;;
61383;SDS011;63511;49.346;8.798;2022-11-15T16:31:13;6.95;;;4.68;;
61383;SDS011;63511;49.346;8.798;2022-11-15T16:33:39;11.35;;;4.65;;
61383;SDS011;63511;49.346;8.798;2022-11-15T16:36:25;11.00;;;4.68;;
61383;SDS011;63511;49.346;8.798;2022-11-15T16:38:52;9.00;;;4.60;;
61383;SDS011;63511;49.346;8.798;2022-11-15T16:41:18;9.75;;;4.80;;
61383;SDS011;63511;49.346;8.798;2022-11-15T16:43:44;9.73;;;4.82;;
61383;SDS011;63511;49.346;8.798;2022-11-15T16:46:14;6.22;;;3.95;;
61383;SDS011;63511;49.346;8.798;2022-11-15T16:48:42;11.23;;;5.00;;
61383;SDS011;63511;49.346;8.798;2022-11-15T16:51:07;10.07;;;4.85;;
61383;SDS011;63511;49.346;8.798;2022-11-15T16:53:33;7.40;;;4.85;;
61383;SDS011;63511;49.346;8.798;2022-11-15T16:56:01;7.60;;;4.53;;
61383;SDS011;63511;49.346;8.798;2022-11-15T16:58:26;8.05;;;4.95;;
61383;SDS011;63511;49.346;8.798;2022-11-15T17:00:55;10.52;;;5.20;;
61383;SDS011;63511;49.346;8.798;2022-11-15T17:03:23;11.75;;;4.63;;
61383;SDS011;63511;49.346;8.798;2022-11-15T17:05:49;9.60;;;4.15;;
61383;SDS011;63511;49.346;8.798;2022-11-15T17:08:14;10.48;;;4.47;;
61383;SDS011;63511;49.346;8.798;2022-11-15T17:10:44;11.10;;;4.68;;
61383;SDS011;63511;49.346;8.798;2022-11-15T17:13:12;9.15;;;4.95;;
61383;SDS011;63511;49.346;8.798;2022-11-15T17:15:40;27.55;;;14.00;;
61383;SDS011;63511;49.346;8.798;2022-11-15T17:18:05;10.13;;;5.60;;
61383;SDS011;63511;49.346;8.798;2022-11-15T17:20:33;6.95;;;4.55;;
61383;SDS011;63511;49.346;8.798;2022-11-15T17:22:58;7.65;;;4.63;;
61383;SDS011;63511;49.346;8.798;2022-11-15T17:25:23;15.77;;;5.70;;
61383;SDS011;63511;49.346;8.798;2022-11-15T17:27:51;14.80;;;7.88;;
61383;SDS011;63511;49.346;8.798;2022-11-15T17:30:16;14.18;;;8.40;;
61383;SDS011;63511;49.346;8.798;2022-11-15T17:32:44;15.15;;;8.07;;